KHPT/HPT METAR and TAF weather

Enter ICAO airport designator
Station Type Date Time Source
KHPT METAR 2019/04/20 22:15 UTC NOAA

KHPT 202215Z AUTO 20012G16KT 10SM CLR 24/M11 A2976 RMK AO2


Station Type Date Time Source
KHPT Decoded METAR 2019/04/20 22:15 UTC NOAA

Station name not available
Apr 20, 2019 - 06:15 PM EDT / 2019.04.20 2215 UTC
Wind: from the SSW (200 degrees) at 14 MPH (12 KT) gusting to 18 MPH (16 KT):0
Visibility: 10 mile(s):0
Sky conditions: clear
Temperature: 75 F (24 C)
Dew Point: 12 F (-11 C)
Relative Humidity: 8%
Pressure (altimeter): 29.76 in. Hg (1007 hPa)
ob: KHPT 202215Z AUTO 20012G16KT 10SM CLR 24/M11 A2976 RMK AO2
cycle: 22

Station Type Date Time Source
KHPT TAF UTC NOAA

Error!

Example: see airport list